createdAt,value
2023-05-08T00:34:07.808Z,1021.5
2023-05-08T00:49:03.740Z,1021.6
2023-05-08T01:04:00.338Z,1021.7
2023-05-08T01:18:56.609Z,1021.7
2023-05-08T01:33:53.325Z,1021.8
2023-05-08T01:48:49.429Z,1021.8
2023-05-08T02:03:46.018Z,1021.8
2023-05-08T02:18:41.942Z,1021.8
2023-05-08T02:33:38.436Z,1021.8
2023-05-08T02:48:34.338Z,1021.9
2023-05-08T03:03:30.996Z,1021.9
2023-05-08T03:18:26.687Z,1022
2023-05-08T03:33:22.900Z,1022.1
2023-05-08T03:48:19.154Z,1022.1
2023-05-08T04:03:15.420Z,1022.1
2023-05-08T04:18:11.259Z,1022.2
2023-05-08T04:33:07.391Z,1022.3
2023-05-08T04:48:03.544Z,1022.2
2023-05-08T05:03:00.036Z,1022.4
2023-05-08T05:17:55.723Z,1022.4
2023-05-08T05:32:51.707Z,1022.5
2023-05-08T05:47:47.848Z,1022.6
2023-05-08T06:02:43.792Z,1022.8
2023-05-08T06:17:40.305Z,1022.7
2023-05-08T06:32:36.442Z,1022.8
2023-05-08T06:47:32.594Z,1022.8
2023-05-08T07:02:28.877Z,1023
2023-05-08T07:17:24.834Z,1023
2023-05-08T07:32:20.718Z,1022.9
2023-05-08T07:47:17.587Z,1022.9
2023-05-08T08:02:13.501Z,1022.9
2023-05-08T08:17:10.512Z,1023
2023-05-08T08:32:06.747Z,1023
2023-05-08T08:47:02.789Z,1023
2023-05-08T09:01:59.427Z,1022.9
2023-05-08T09:16:55.339Z,1023
2023-05-08T09:31:51.333Z,1023.1
2023-05-08T09:46:47.548Z,1023
2023-05-08T10:01:43.843Z,1023.1
2023-05-08T10:16:39.504Z,1023.1
2023-05-08T10:31:35.350Z,1023.1
2023-05-08T10:46:31.602Z,1023.1
2023-05-08T11:01:28.067Z,1022.9
2023-05-08T11:16:24.559Z,1022.8
2023-05-08T11:31:21.578Z,1022.9
2023-05-08T11:46:17.962Z,1022.7
2023-05-08T12:01:14.954Z,1022.5
2023-05-08T12:16:12.797Z,1022.4
2023-05-08T12:31:08.474Z,1022.4
2023-05-08T12:46:05.293Z,1022.3
2023-05-08T13:01:02.533Z,1022.1
2023-05-08T13:30:55.246Z,1021.7
2023-05-08T13:45:51.870Z,1021.6
2023-05-08T14:00:48.276Z,1021.4
2023-05-08T14:15:44.820Z,1021.3
2023-05-08T14:30:41.519Z,1021.3
2023-05-08T14:45:38.032Z,1021.4
2023-05-08T15:00:32.882Z,1021.2
2023-05-08T15:15:29.367Z,1021.3
2023-05-08T15:30:25.258Z,1021.3
2023-05-08T15:45:21.605Z,1021.2
2023-05-08T16:00:18.790Z,1021.1
2023-05-08T16:15:14.850Z,1021
2023-05-08T16:30:11.063Z,1021
2023-05-08T16:45:06.352Z,1021
2023-05-08T17:00:02.056Z,1021
2023-05-08T17:14:57.762Z,1020.9
2023-05-08T17:29:53.465Z,1021.1
2023-05-08T17:44:49.754Z,1021.1
2023-05-08T17:59:45.525Z,1021
2023-05-08T18:14:41.631Z,1021.2
2023-05-08T18:29:37.363Z,1021.2
2023-05-08T18:44:33.129Z,1021.4
2023-05-08T18:59:28.877Z,1021.1
2023-05-08T19:14:24.746Z,1021.2
2023-05-08T19:29:20.994Z,1021.1
2023-05-08T19:44:17.140Z,1021.2
2023-05-08T19:59:13.082Z,1021.2
2023-05-08T20:14:08.714Z,1021.2
2023-05-08T20:29:05.113Z,1021.2
2023-05-08T20:44:01.025Z,1021.4
2023-05-08T20:58:56.685Z,1021.4
2023-05-08T22:13:36.713Z,1020.7
2023-05-08T22:28:33.095Z,1020.7
2023-05-08T22:43:29.374Z,1020.6
2023-05-08T22:58:25.501Z,1020.5
2023-05-08T23:13:22.141Z,1020.5
2023-05-08T23:28:17.344Z,1020.3
2023-05-08T23:43:13.597Z,1020.1
2023-05-08T23:58:09.577Z,1019.9
